sensor_id;sensor_type;location;lat;lon;timestamp;pressure;altitude;pressure_sealevel;temperature;humidity
68075;BME280;54864;52.002;5.468;2023-04-30T00:00:08;102229.66;;;9.83;75.79
68075;BME280;54864;52.002;5.468;2023-04-30T00:01:11;102222.56;;;9.87;75.70
68075;BME280;54864;52.002;5.468;2023-04-30T00:02:12;102228.59;;;9.94;74.83
68075;BME280;54864;52.002;5.468;2023-04-30T00:03:13;102228.78;;;9.84;75.18
68075;BME280;54864;52.002;5.468;2023-04-30T00:04:17;102229.75;;;9.79;75.08
68075;BME280;54864;52.002;5.468;2023-04-30T00:05:18;102232.53;;;9.70;75.28
68075;BME280;54864;52.002;5.468;2023-04-30T00:06:19;102232.34;;;9.82;74.87
68075;BME280;54864;52.002;5.468;2023-04-30T00:07:21;102230.63;;;9.79;74.87
68075;BME280;54864;52.002;5.468;2023-04-30T00:08:21;102225.34;;;9.79;74.98
68075;BME280;54864;52.002;5.468;2023-04-30T00:09:26;102235.19;;;9.68;75.28
68075;BME280;54864;52.002;5.468;2023-04-30T00:10:30;102232.66;;;9.64;75.13
68075;BME280;54864;52.002;5.468;2023-04-30T00:11:31;102238.03;;;9.58;75.09
68075;BME280;54864;52.002;5.468;2023-04-30T00:12:33;102235.44;;;9.56;75.51
68075;BME280;54864;52.002;5.468;2023-04-30T00:13:35;102239.84;;;9.54;75.42
68075;BME280;54864;52.002;5.468;2023-04-30T00:14:36;102237.41;;;9.45;75.32
68075;BME280;54864;52.002;5.468;2023-04-30T00:15:37;102234.63;;;9.52;75.82
68075;BME280;54864;52.002;5.468;2023-04-30T00:16:44;102240.66;;;9.58;74.77
68075;BME280;54864;52.002;5.468;2023-04-30T00:17:45;102239.88;;;9.52;75.15
68075;BME280;54864;52.002;5.468;2023-04-30T00:18:49;102227.69;;;9.48;75.43
68075;BME280;54864;52.002;5.468;2023-04-30T00:19:51;102232.06;;;9.48;75.28
68075;BME280;54864;52.002;5.468;2023-04-30T00:20:52;102232.19;;;9.42;75.54
68075;BME280;54864;52.002;5.468;2023-04-30T00:21:53;102228.00;;;9.30;75.50
68075;BME280;54864;52.002;5.468;2023-04-30T00:22:54;102233.28;;;9.30;75.82
68075;BME280;54864;52.002;5.468;2023-04-30T00:23:55;102236.06;;;9.21;75.71
68075;BME280;54864;52.002;5.468;2023-04-30T00:25:02;102236.88;;;9.25;75.62
68075;BME280;54864;52.002;5.468;2023-04-30T00:26:04;102232.47;;;9.25;75.80
68075;BME280;54864;52.002;5.468;2023-04-30T00:27:04;102234.25;;;9.25;76.06
68075;BME280;54864;52.002;5.468;2023-04-30T00:28:07;102233.34;;;9.26;75.61
68075;BME280;54864;52.002;5.468;2023-04-30T00:29:08;102224.72;;;9.17;75.40
68075;BME280;54864;52.002;5.468;2023-04-30T00:30:11;102231.63;;;9.23;76.06
68075;BME280;54864;52.002;5.468;2023-04-30T00:31:12;102227.22;;;9.25;75.59
68075;BME280;54864;52.002;5.468;2023-04-30T00:32:15;102234.34;;;9.18;75.67
68075;BME280;54864;52.002;5.468;2023-04-30T00:33:17;102233.47;;;9.18;75.84
68075;BME280;54864;52.002;5.468;2023-04-30T00:34:20;102229.13;;;9.15;75.98
68075;BME280;54864;52.002;5.468;2023-04-30T00:35:22;102232.59;;;9.19;76.37
68075;BME280;54864;52.002;5.468;2023-04-30T00:36:23;102236.94;;;9.21;76.05
68075;BME280;54864;52.002;5.468;2023-04-30T00:37:25;102229.13;;;9.15;76.13
68075;BME280;54864;52.002;5.468;2023-04-30T00:38:28;102229.13;;;9.17;76.72
68075;BME280;54864;52.002;5.468;2023-04-30T00:39:32;102233.50;;;9.16;76.64
68075;BME280;54864;52.002;5.468;2023-04-30T00:40:33;102229.00;;;9.23;76.87
68075;BME280;54864;52.002;5.468;2023-04-30T00:41:38;102227.28;;;9.22;77.04
68075;BME280;54864;52.002;5.468;2023-04-30T00:42:41;102235.16;;;9.22;76.85
68075;BME280;54864;52.002;5.468;2023-04-30T00:43:44;102241.31;;;9.23;76.95
68075;BME280;54864;52.002;5.468;2023-04-30T00:44:46;102236.03;;;9.23;77.24
68075;BME280;54864;52.002;5.468;2023-04-30T00:45:48;102242.16;;;9.25;76.66
68075;BME280;54864;52.002;5.468;2023-04-30T00:46:48;102243.84;;;9.27;76.31
68075;BME280;54864;52.002;5.468;2023-04-30T00:47:50;102241.31;;;9.21;77.05
68075;BME280;54864;52.002;5.468;2023-04-30T00:48:50;102242.19;;;9.21;76.64
68075;BME280;54864;52.002;5.468;2023-04-30T00:49:56;102243.84;;;9.27;76.58
68075;BME280;54864;52.002;5.468;2023-04-30T00:50:57;102256.09;;;9.30;76.59
68075;BME280;54864;52.002;5.468;2023-04-30T00:51:58;102253.50;;;9.27;76.78
68075;BME280;54864;52.002;5.468;2023-04-30T00:53:00;102251.72;;;9.29;76.94
68075;BME280;54864;52.002;5.468;2023-04-30T00:54:05;102252.53;;;9.32;76.16
68075;BME280;54864;52.002;5.468;2023-04-30T00:55:07;102252.63;;;9.26;76.02
68075;BME280;54864;52.002;5.468;2023-04-30T00:56:09;102254.44;;;9.24;75.98
68075;BME280;54864;52.002;5.468;2023-04-30T00:57:11;102247.47;;;9.20;76.71
68075;BME280;54864;52.002;5.468;2023-04-30T00:58:13;102250.97;;;9.22;76.54
68075;BME280;54864;52.002;5.468;2023-04-30T00:59:16;102247.44;;;9.23;76.30
68075;BME280;54864;52.002;5.468;2023-04-30T01:00:17;102250.06;;;9.23;75.83
68075;BME280;54864;52.002;5.468;2023-04-30T01:01:18;102257.13;;;9.21;75.40
68075;BME280;54864;52.002;5.468;2023-04-30T01:02:20;102251.03;;;9.17;76.21
68075;BME280;54864;52.002;5.468;2023-04-30T01:03:22;102255.53;;;9.09;76.11
68075;BME280;54864;52.002;5.468;2023-04-30T01:04:23;102254.66;;;9.09;76.88
68075;BME280;54864;52.002;5.468;2023-04-30T01:05:28;102252.09;;;9.04;76.81
68075;BME280;54864;52.002;5.468;2023-04-30T01:06:32;102243.25;;;9.08;76.25
68075;BME280;54864;52.002;5.468;2023-04-30T01:07:33;102247.72;;;9.03;75.94
68075;BME280;54864;52.002;5.468;2023-04-30T01:08:37;102253.19;;;8.91;76.26
68075;BME280;54864;52.002;5.468;2023-04-30T01:09:38;102259.31;;;8.92;76.30
68075;BME280;54864;52.002;5.468;2023-04-30T01:10:45;102244.66;;;8.75;76.89
68075;BME280;54864;52.002;5.468;2023-04-30T01:11:54;102253.22;;;8.89;76.38
68075;BME280;54864;52.002;5.468;2023-04-30T01:13:02;102250.66;;;8.85;76.07
68075;BME280;54864;52.002;5.468;2023-04-30T01:14:09;102254.16;;;8.85;76.93
68075;BME280;54864;52.002;5.468;2023-04-30T01:15:19;102247.09;;;8.87;76.09
68075;BME280;54864;52.002;5.468;2023-04-30T01:16:25;102241.13;;;8.78;76.36
68075;BME280;54864;52.002;5.468;2023-04-30T01:17:31;102251.56;;;8.82;76.41
68075;BME280;54864;52.002;5.468;2023-04-30T01:18:39;102246.22;;;8.87;76.01
68075;BME280;54864;52.002;5.468;2023-04-30T01:19:45;102246.34;;;8.81;75.80
68075;BME280;54864;52.002;5.468;2023-04-30T01:20:48;102244.69;;;8.74;76.32
68075;BME280;54864;52.002;5.468;2023-04-30T01:21:51;102242.13;;;8.69;76.31
68075;BME280;54864;52.002;5.468;2023-04-30T01:22:56;102247.41;;;8.68;76.74
68075;BME280;54864;52.002;5.468;2023-04-30T01:24:17;102242.31;;;8.55;76.91
68075;BME280;54864;52.002;5.468;2023-04-30T01:25:41;102246.59;;;8.64;77.05
68075;BME280;54864;52.002;5.468;2023-04-30T01:26:56;102248.44;;;8.57;76.80
68075;BME280;54864;52.002;5.468;2023-04-30T01:28:04;102244.97;;;8.55;76.65
68075;BME280;54864;52.002;5.468;2023-04-30T01:29:13;102246.81;;;8.49;77.46
68075;BME280;54864;52.002;5.468;2023-04-30T01:30:15;102250.19;;;8.57;76.62
68075;BME280;54864;52.002;5.468;2023-04-30T01:31:22;102245.88;;;8.51;76.58
68075;BME280;54864;52.002;5.468;2023-04-30T01:32:23;102245.19;;;8.37;77.24
68075;BME280;54864;52.002;5.468;2023-04-30T01:33:25;102246.81;;;8.49;76.71
68075;BME280;54864;52.002;5.468;2023-04-30T01:34:26;102243.19;;;8.56;76.56
68075;BME280;54864;52.002;5.468;2023-04-30T01:35:57;102249.38;;;8.52;76.66
68075;BME280;54864;52.002;5.468;2023-04-30T01:37:07;102246.78;;;8.50;75.99
68075;BME280;54864;52.002;5.468;2023-04-30T01:38:21;102250.31;;;8.48;76.58
68075;BME280;54864;52.002;5.468;2023-04-30T01:39:41;102254.84;;;8.34;77.23
68075;BME280;54864;52.002;5.468;2023-04-30T01:40:49;102253.13;;;8.30;78.00
68075;BME280;54864;52.002;5.468;2023-04-30T01:42:04;102252.31;;;8.26;77.23
68075;BME280;54864;52.002;5.468;2023-04-30T01:43:19;102246.09;;;8.33;77.23
68075;BME280;54864;52.002;5.468;2023-04-30T01:44:30;102252.22;;;8.35;76.92
68075;BME280;54864;52.002;5.468;2023-04-30T01:45:51;102251.53;;;8.18;77.49
68075;BME280;54864;52.002;5.468;2023-04-30T01:47:03;102252.41;;;8.17;77.80
68075;BME280;54864;52.002;5.468;2023-04-30T01:48:15;102263.00;;;8.11;78.57
68075;BME280;54864;52.002;5.468;2023-04-30T01:49:26;102258.56;;;8.16;78.51
68075;BME280;54864;52.002;5.468;2023-04-30T01:50:36;102256.75;;;8.19;77.97
68075;BME280;54864;52.002;5.468;2023-04-30T01:51:42;102255.84;;;8.23;77.87
68075;BME280;54864;52.002;5.468;2023-04-30T01:52:46;102256.81;;;8.16;77.80
68075;BME280;54864;52.002;5.468;2023-04-30T01:53:48;102267.31;;;8.16;78.36
68075;BME280;54864;52.002;5.468;2023-04-30T01:54:52;102263.03;;;8.08;78.34
68075;BME280;54864;52.002;5.468;2023-04-30T01:55:57;102266.53;;;8.08;78.29
68075;BME280;54864;52.002;5.468;2023-04-30T01:57:04;102267.47;;;8.04;78.05
68075;BME280;54864;52.002;5.468;2023-04-30T01:58:09;102262.22;;;8.03;78.22
68075;BME280;54864;52.002;5.468;2023-04-30T01:59:13;102266.50;;;8.11;77.39
68075;BME280;54864;52.002;5.468;2023-04-30T02:00:15;102272.66;;;8.09;78.40
68075;BME280;54864;52.002;5.468;2023-04-30T02:01:27;102266.59;;;8.02;77.93
68075;BME280;54864;52.002;5.468;2023-04-30T02:02:32;102267.50;;;8.00;77.67
68075;BME280;54864;52.002;5.468;2023-04-30T02:03:32;102275.47;;;7.92;78.18
68075;BME280;54864;52.002;5.468;2023-04-30T02:04:34;102270.28;;;7.87;78.46
68075;BME280;54864;52.002;5.468;2023-04-30T02:05:35;102272.91;;;7.86;78.39
68075;BME280;54864;52.002;5.468;2023-04-30T02:06:37;102277.28;;;7.87;78.78
68075;BME280;54864;52.002;5.468;2023-04-30T02:07:39;102268.56;;;7.85;78.02
68075;BME280;54864;52.002;5.468;2023-04-30T02:08:41;102275.56;;;7.84;78.77
68075;BME280;54864;52.002;5.468;2023-04-30T02:09:41;102271.22;;;7.82;78.66
68075;BME280;54864;52.002;5.468;2023-04-30T02:10:43;102277.38;;;7.75;78.67
68075;BME280;54864;52.002;5.468;2023-04-30T02:11:46;102275.59;;;7.78;78.79
68075;BME280;54864;52.002;5.468;2023-04-30T02:12:47;102272.94;;;7.80;78.26
68075;BME280;54864;52.002;5.468;2023-04-30T02:13:48;102278.22;;;7.78;78.74
68075;BME280;54864;52.002;5.468;2023-04-30T02:14:53;102273.88;;;7.76;78.72
68075;BME280;54864;52.002;5.468;2023-04-30T02:15:57;102266.03;;;7.71;78.50
68075;BME280;54864;52.002;5.468;2023-04-30T02:16:58;102280.00;;;7.76;78.34
68075;BME280;54864;52.002;5.468;2023-04-30T02:18:02;102277.38;;;7.76;78.70
68075;BME280;54864;52.002;5.468;2023-04-30T02:19:03;102279.09;;;7.79;78.78
68075;BME280;54864;52.002;5.468;2023-04-30T02:20:05;102276.47;;;7.77;79.01
68075;BME280;54864;52.002;5.468;2023-04-30T02:21:10;102273.88;;;7.74;78.75
68075;BME280;54864;52.002;5.468;2023-04-30T02:22:11;102272.97;;;7.77;78.82
68075;BME280;54864;52.002;5.468;2023-04-30T02:23:14;102269.47;;;7.79;78.89
68075;BME280;54864;52.002;5.468;2023-04-30T02:24:15;102274.69;;;7.84;78.88
68075;BME280;54864;52.002;5.468;2023-04-30T02:25:19;102272.94;;;7.80;79.35
68075;BME280;54864;52.002;5.468;2023-04-30T02:26:20;102269.44;;;7.85;78.90
68075;BME280;54864;52.002;5.468;2023-04-30T02:27:23;102267.66;;;7.86;79.06
68075;BME280;54864;52.002;5.468;2023-04-30T02:28:24;102265.00;;;7.89;78.70
68075;BME280;54864;52.002;5.468;2023-04-30T02:29:26;102272.00;;;7.90;78.02
68075;BME280;54864;52.002;5.468;2023-04-30T02:30:28;102268.53;;;7.88;78.96
68075;BME280;54864;52.002;5.468;2023-04-30T02:31:30;102269.44;;;7.85;79.11
68075;BME280;54864;52.002;5.468;2023-04-30T02:32:31;102267.59;;;7.92;78.87
68075;BME280;54864;52.002;5.468;2023-04-30T02:33:33;102270.28;;;7.87;79.43
68075;BME280;54864;52.002;5.468;2023-04-30T02:34:36;102272.94;;;7.83;79.63
68075;BME280;54864;52.002;5.468;2023-04-30T02:35:39;102271.19;;;7.85;79.32
68075;BME280;54864;52.002;5.468;2023-04-30T02:36:40;102275.53;;;7.87;79.43
68075;BME280;54864;52.002;5.468;2023-04-30T02:37:45;102270.34;;;7.81;80.35
68075;BME280;54864;52.002;5.468;2023-04-30T02:38:45;102264.19;;;7.84;80.04
68075;BME280;54864;52.002;5.468;2023-04-30T02:39:47;102271.13;;;7.89;80.32
68075;BME280;54864;52.002;5.468;2023-04-30T02:40:48;102270.19;;;7.95;80.08
68075;BME280;54864;52.002;5.468;2023-04-30T02:41:49;102269.31;;;7.94;79.98
68075;BME280;54864;52.002;5.468;2023-04-30T02:42:50;102274.53;;;7.98;80.74
68075;BME280;54864;52.002;5.468;2023-04-30T02:43:53;102267.53;;;7.97;80.26
68075;BME280;54864;52.002;5.468;2023-04-30T02:44:54;102267.44;;;8.06;80.32
68075;BME280;54864;52.002;5.468;2023-04-30T02:45:57;102263.97;;;8.04;80.44
68075;BME280;54864;52.002;5.468;2023-04-30T02:46:57;102261.34;;;8.02;81.48
68075;BME280;54864;52.002;5.468;2023-04-30T02:48:00;102261.28;;;8.07;81.59
68075;BME280;54864;52.002;5.468;2023-04-30T02:49:01;102259.53;;;8.09;81.66
68075;BME280;54864;52.002;5.468;2023-04-30T02:50:03;102258.66;;;8.08;81.24
68075;BME280;54864;52.002;5.468;2023-04-30T02:51:04;102249.88;;;8.11;80.90
68075;BME280;54864;52.002;5.468;2023-04-30T02:52:06;102257.75;;;8.09;81.03
68075;BME280;54864;52.002;5.468;2023-04-30T02:53:08;102258.59;;;8.13;81.15
68075;BME280;54864;52.002;5.468;2023-04-30T02:54:10;102248.00;;;8.19;80.58
68075;BME280;54864;52.002;5.468;2023-04-30T02:55:11;102252.34;;;8.21;80.58
68075;BME280;54864;52.002;5.468;2023-04-30T02:56:13;102243.66;;;8.16;80.40
68075;BME280;54864;52.002;5.468;2023-04-30T02:57:13;102247.13;;;8.20;80.81
68075;BME280;54864;52.002;5.468;2023-04-30T02:58:15;102248.00;;;8.19;81.15
68075;BME280;54864;52.002;5.468;2023-04-30T02:59:18;102240.13;;;8.19;80.88
68075;BME280;54864;52.002;5.468;2023-04-30T03:00:20;102245.34;;;8.22;80.41
68075;BME280;54864;52.002;5.468;2023-04-30T03:01:24;102246.22;;;8.21;80.47
68075;BME280;54864;52.002;5.468;2023-04-30T03:02:25;102251.56;;;8.15;81.10
68075;BME280;54864;52.002;5.468;2023-04-30T03:03:32;102248.97;;;8.13;80.61
68075;BME280;54864;52.002;5.468;2023-04-30T03:04:37;102242.84;;;8.11;81.40
68075;BME280;54864;52.002;5.468;2023-04-30T03:05:37;102249.81;;;8.14;81.08
68075;BME280;54864;52.002;5.468;2023-04-30T03:06:39;102240.16;;;8.17;81.16
68075;BME280;54864;52.002;5.468;2023-04-30T03:07:40;102241.88;;;8.18;81.89
68075;BME280;54864;52.002;5.468;2023-04-30T03:08:41;102244.50;;;8.20;82.02
68075;BME280;54864;52.002;5.468;2023-04-30T03:09:42;102246.19;;;8.24;82.33
68075;BME280;54864;52.002;5.468;2023-04-30T03:10:44;102247.09;;;8.23;82.37
68075;BME280;54864;52.002;5.468;2023-04-30T03:11:44;102238.28;;;8.27;82.23
68075;BME280;54864;52.002;5.468;2023-04-30T03:12:46;102242.63;;;8.28;82.42
68075;BME280;54864;52.002;5.468;2023-04-30T03:13:47;102239.06;;;8.37;82.09
68075;BME280;54864;52.002;5.468;2023-04-30T03:14:50;102244.31;;;8.37;81.46
68075;BME280;54864;52.002;5.468;2023-04-30T03:15:56;102249.47;;;8.43;81.08
68075;BME280;54864;52.002;5.468;2023-04-30T03:16:59;102244.28;;;8.40;81.10
68075;BME280;54864;52.002;5.468;2023-04-30T03:17:59;102239.84;;;8.42;80.96
68075;BME280;54864;52.002;5.468;2023-04-30T03:19:01;102236.31;;;8.44;80.93
68075;BME280;54864;52.002;5.468;2023-04-30T03:20:02;102244.25;;;8.41;82.23
68075;BME280;54864;52.002;5.468;2023-04-30T03:21:04;102244.22;;;8.43;80.79
68075;BME280;54864;52.002;5.468;2023-04-30T03:22:07;102244.25;;;8.41;80.72
68075;BME280;54864;52.002;5.468;2023-04-30T03:23:09;102253.03;;;8.40;80.84
68075;BME280;54864;52.002;5.468;2023-04-30T03:24:09;102241.63;;;8.40;80.35
68075;BME280;54864;52.002;5.468;2023-04-30T03:25:11;102248.53;;;8.50;80.26
68075;BME280;54864;52.002;5.468;2023-04-30T03:26:12;102253.06;;;8.37;79.67
68075;BME280;54864;52.002;5.468;2023-04-30T03:27:13;102239.03;;;8.38;80.20
68075;BME280;54864;52.002;5.468;2023-04-30T03:28:16;102239.84;;;8.42;79.64
68075;BME280;54864;52.002;5.468;2023-04-30T03:29:17;102238.94;;;8.44;80.05
68075;BME280;54864;52.002;5.468;2023-04-30T03:30:18;102241.56;;;8.44;79.49
68075;BME280;54864;52.002;5.468;2023-04-30T03:31:20;102254.84;;;8.34;79.35
68075;BME280;54864;52.002;5.468;2023-04-30T03:32:22;102250.41;;;8.39;79.84
68075;BME280;54864;52.002;5.468;2023-04-30T03:33:26;102239.91;;;8.37;79.58
68075;BME280;54864;52.002;5.468;2023-04-30T03:34:30;102248.72;;;8.33;80.06
68075;BME280;54864;52.002;5.468;2023-04-30T03:35:32;102247.84;;;8.31;78.83
68075;BME280;54864;52.002;5.468;2023-04-30T03:36:33;102247.06;;;8.24;79.26
68075;BME280;54864;52.002;5.468;2023-04-30T03:37:35;102241.72;;;8.34;79.32
68075;BME280;54864;52.002;5.468;2023-04-30T03:38:35;102239.16;;;8.27;78.57
68075;BME280;54864;52.002;5.468;2023-04-30T03:39:37;102244.38;;;8.29;78.92
68075;BME280;54864;52.002;5.468;2023-04-30T03:40:40;102241.88;;;8.18;79.54
68075;BME280;54864;52.002;5.468;2023-04-30T03:41:42;102251.56;;;8.15;79.66
68075;BME280;54864;52.002;5.468;2023-04-30T03:42:46;102237.50;;;8.19;80.16
68075;BME280;54864;52.002;5.468;2023-04-30T03:43:48;102232.25;;;8.19;79.80
68075;BME280;54864;52.002;5.468;2023-04-30T03:44:48;102233.19;;;8.13;80.02
68075;BME280;54864;52.002;5.468;2023-04-30T03:45:50;102233.28;;;8.06;80.71
68075;BME280;54864;52.002;5.468;2023-04-30T03:46:54;102235.00;;;8.10;79.97
68075;BME280;54864;52.002;5.468;2023-04-30T03:47:57;102242.91;;;8.08;80.77
68075;BME280;54864;52.002;5.468;2023-04-30T03:48:58;102241.94;;;8.14;80.68
68075;BME280;54864;52.002;5.468;2023-04-30T03:50:03;102238.78;;;7.86;81.99
68075;BME280;54864;52.002;5.468;2023-04-30T03:51:03;102240.41;;;7.96;81.79
68075;BME280;54864;52.002;5.468;2023-04-30T03:52:05;102239.53;;;7.95;81.63
68075;BME280;54864;52.002;5.468;2023-04-30T03:53:06;102235.16;;;7.96;81.46
68075;BME280;54864;52.002;5.468;2023-04-30T03:54:08;102246.50;;;8.00;81.52
68075;BME280;54864;52.002;5.468;2023-04-30T03:55:09;102244.81;;;7.95;81.94
68075;BME280;54864;52.002;5.468;2023-04-30T03:56:11;102231.56;;;8.03;81.34
68075;BME280;54864;52.002;5.468;2023-04-30T03:57:12;102243.84;;;8.01;81.33
68075;BME280;54864;52.002;5.468;2023-04-30T03:58:13;102232.53;;;7.98;81.47
68075;BME280;54864;52.002;5.468;2023-04-30T03:59:14;102233.44;;;7.95;81.21
68075;BME280;54864;52.002;5.468;2023-04-30T04:00:19;102237.69;;;8.05;80.55
68075;BME280;54864;52.002;5.468;2023-04-30T04:01:20;102234.97;;;8.13;80.48
68075;BME280;54864;52.002;5.468;2023-04-30T04:02:22;102237.66;;;8.07;79.92
68075;BME280;54864;52.002;5.468;2023-04-30T04:03:24;102239.38;;;8.11;80.49
68075;BME280;54864;52.002;5.468;2023-04-30T04:04:25;102241.91;;;8.17;79.85
68075;BME280;54864;52.002;5.468;2023-04-30T04:05:26;102236.63;;;8.18;79.65
68075;BME280;54864;52.002;5.468;2023-04-30T04:06:28;102239.31;;;8.15;79.95
68075;BME280;54864;52.002;5.468;2023-04-30T04:07:29;102247.28;;;8.06;79.79
68075;BME280;54864;52.002;5.468;2023-04-30T04:08:30;102236.78;;;8.08;80.28
68075;BME280;54864;52.002;5.468;2023-04-30T04:09:32;102239.31;;;8.15;79.93
68075;BME280;54864;52.002;5.468;2023-04-30T04:10:33;102238.34;;;8.21;79.57
68075;BME280;54864;52.002;5.468;2023-04-30T04:11:34;102238.34;;;8.22;79.41
68075;BME280;54864;52.002;5.468;2023-04-30T04:12:42;102239.22;;;8.21;79.62
68075;BME280;54864;52.002;5.468;2023-04-30T04:13:43;102238.34;;;8.21;79.35
68075;BME280;54864;52.002;5.468;2023-04-30T04:14:45;102239.19;;;8.23;79.61
68075;BME280;54864;52.002;5.468;2023-04-30T04:15:45;102243.56;;;8.24;79.87
68075;BME280;54864;52.002;5.468;2023-04-30T04:16:47;102242.63;;;8.28;80.00
68075;BME280;54864;52.002;5.468;2023-04-30T04:17:48;102239.16;;;8.27;79.63
68075;BME280;54864;52.002;5.468;2023-04-30T04:18:51;102243.59;;;8.22;79.20
68075;BME280;54864;52.002;5.468;2023-04-30T04:19:54;102247.88;;;8.30;79.48
68075;BME280;54864;52.002;5.468;2023-04-30T04:20:56;102242.63;;;8.28;79.87
68075;BME280;54864;52.002;5.468;2023-04-30T04:21:57;102242.78;;;8.17;79.03
68075;BME280;54864;52.002;5.468;2023-04-30T04:23:01;102240.03;;;8.26;79.50
68075;BME280;54864;52.002;5.468;2023-04-30T04:24:02;102248.00;;;8.20;79.31
68075;BME280;54864;52.002;5.468;2023-04-30T04:25:08;102243.66;;;8.18;78.82
68075;BME280;54864;52.002;5.468;2023-04-30T04:26:09;102249.91;;;8.08;79.10
68075;BME280;54864;52.002;5.468;2023-04-30T04:27:10;102247.28;;;8.08;78.83
68075;BME280;54864;52.002;5.468;2023-04-30T04:28:11;102249.97;;;8.02;78.74
68075;BME280;54864;52.002;5.468;2023-04-30T04:29:13;102243.88;;;8.00;79.29
68075;BME280;54864;52.002;5.468;2023-04-30T04:30:14;102255.28;;;7.97;78.63
68075;BME280;54864;52.002;5.468;2023-04-30T04:31:16;102257.97;;;7.92;78.88
68075;BME280;54864;52.002;5.468;2023-04-30T04:32:18;102253.66;;;7.87;78.95
68075;BME280;54864;52.002;5.468;2023-04-30T04:33:19;102258.84;;;7.91;78.92
68075;BME280;54864;52.002;5.468;2023-04-30T04:34:22;102260.66;;;7.86;78.94
68075;BME280;54864;52.002;5.468;2023-04-30T04:35:23;102265.94;;;7.85;78.62
68075;BME280;54864;52.002;5.468;2023-04-30T04:36:28;102270.28;;;7.86;79.17
68075;BME280;54864;52.002;5.468;2023-04-30T04:37:29;102264.19;;;7.84;79.01
68075;BME280;54864;52.002;5.468;2023-04-30T04:38:32;102265.91;;;7.86;78.59
68075;BME280;54864;52.002;5.468;2023-04-30T04:39:36;102260.66;;;7.88;78.08
68075;BME280;54864;52.002;5.468;2023-04-30T04:40:37;102259.81;;;7.84;79.24
68075;BME280;54864;52.002;5.468;2023-04-30T04:41:42;102264.19;;;7.84;78.51
68075;BME280;54864;52.002;5.468;2023-04-30T04:42:43;102263.28;;;7.88;78.94
68075;BME280;54864;52.002;5.468;2023-04-30T04:43:44;102258.84;;;7.91;78.91
68075;BME280;54864;52.002;5.468;2023-04-30T04:44:47;102264.09;;;7.93;78.33
68075;BME280;54864;52.002;5.468;2023-04-30T04:45:49;102263.22;;;7.91;78.48
68075;BME280;54864;52.002;5.468;2023-04-30T04:46:51;102261.47;;;7.93;77.69
68075;BME280;54864;52.002;5.468;2023-04-30T04:47:53;102260.59;;;7.92;78.65
68075;BME280;54864;52.002;5.468;2023-04-30T04:48:54;102264.94;;;7.93;78.08
68075;BME280;54864;52.002;5.468;2023-04-30T04:49:59;102260.56;;;7.94;78.41
68075;BME280;54864;52.002;5.468;2023-04-30T04:51:00;102263.22;;;7.92;78.51
68075;BME280;54864;52.002;5.468;2023-04-30T04:52:02;102253.59;;;7.93;78.45
68075;BME280;54864;52.002;5.468;2023-04-30T04:53:04;102265.91;;;7.88;79.08
68075;BME280;54864;52.002;5.468;2023-04-30T04:54:05;102258.94;;;7.84;79.02
68075;BME280;54864;52.002;5.468;2023-04-30T04:55:07;102258.97;;;7.79;78.37
68075;BME280;54864;52.002;5.468;2023-04-30T04:56:08;102263.34;;;7.77;78.86
68075;BME280;54864;52.002;5.468;2023-04-30T04:57:11;102254.63;;;7.74;78.48
68075;BME280;54864;52.002;5.468;2023-04-30T04:58:11;102262.66;;;7.60;79.48
68075;BME280;54864;52.002;5.468;2023-04-30T04:59:16;102263.50;;;7.63;78.96
68075;BME280;54864;52.002;5.468;2023-04-30T05:00:23;102249.41;;;7.72;78.73
68075;BME280;54864;52.002;5.468;2023-04-30T05:01:25;102258.09;;;7.77;78.83
68075;BME280;54864;52.002;5.468;2023-04-30T05:02:28;102250.25;;;7.76;79.24
68075;BME280;54864;52.002;5.468;2023-04-30T05:03:33;102255.47;;;7.79;77.92
68075;BME280;54864;52.002;5.468;2023-04-30T05:04:36;102246.81;;;7.69;78.93
68075;BME280;54864;52.002;5.468;2023-04-30T05:05:39;102250.34;;;7.67;78.88
68075;BME280;54864;52.002;5.468;2023-04-30T05:06:39;102250.34;;;7.65;79.32
68075;BME280;54864;52.002;5.468;2023-04-30T05:07:41;102253.78;;;7.72;78.75
68075;BME280;54864;52.002;5.468;2023-04-30T05:08:42;102245.88;;;7.75;79.17
68075;BME280;54864;52.002;5.468;2023-04-30T05:09:43;102245.88;;;7.75;79.28
68075;BME280;54864;52.002;5.468;2023-04-30T05:10:45;102252.88;;;7.76;78.60
68075;BME280;54864;52.002;5.468;2023-04-30T05:11:46;102250.28;;;7.73;79.42
68075;BME280;54864;52.002;5.468;2023-04-30T05:12:48;102247.66;;;7.73;79.14
68075;BME280;54864;52.002;5.468;2023-04-30T05:13:49;102252.03;;;7.72;79.33
68075;BME280;54864;52.002;5.468;2023-04-30T05:14:50;102253.84;;;7.67;80.11
68075;BME280;54864;52.002;5.468;2023-04-30T05:15:52;102249.38;;;7.74;79.36
68075;BME280;54864;52.002;5.468;2023-04-30T05:16:53;102262.47;;;7.77;79.46
68075;BME280;54864;52.002;5.468;2023-04-30T05:17:54;102266.00;;;7.76;80.16
68075;BME280;54864;52.002;5.468;2023-04-30T05:18:55;102254.56;;;7.84;80.62
68075;BME280;54864;52.002;5.468;2023-04-30T05:19:57;102260.69;;;7.85;79.76
68075;BME280;54864;52.002;5.468;2023-04-30T05:20:59;102255.44;;;7.85;79.77
68075;BME280;54864;52.002;5.468;2023-04-30T05:22:01;102258.00;;;7.89;79.86
68075;BME280;54864;52.002;5.468;2023-04-30T05:23:01;102258.03;;;7.86;79.77
68075;BME280;54864;52.002;5.468;2023-04-30T05:24:04;102259.75;;;7.90;79.90
68075;BME280;54864;52.002;5.468;2023-04-30T05:25:05;102264.09;;;7.91;80.40
68075;BME280;54864;52.002;5.468;2023-04-30T05:26:07;102264.00;;;7.99;80.08
68075;BME280;54864;52.002;5.468;2023-04-30T05:27:08;102257.00;;;8.01;80.45
68075;BME280;54864;52.002;5.468;2023-04-30T05:28:10;102257.88;;;8.00;80.21
68075;BME280;54864;52.002;5.468;2023-04-30T05:29:11;102257.84;;;8.03;80.03
68075;BME280;54864;52.002;5.468;2023-04-30T05:30:13;102256.00;;;8.10;79.64
68075;BME280;54864;52.002;5.468;2023-04-30T05:31:15;102255.03;;;8.18;79.71
68075;BME280;54864;52.002;5.468;2023-04-30T05:32:21;102254.19;;;8.16;79.64
68075;BME280;54864;52.002;5.468;2023-04-30T05:33:22;102254.06;;;8.24;79.66